createdAt,value
2017-12-09T00:00:13.225Z,3.42
2017-12-09T00:02:40.696Z,2.90
2017-12-09T00:05:08.160Z,3.25
2017-12-09T00:07:35.580Z,4.28
2017-12-09T00:10:03.035Z,3.60
2017-12-09T00:12:30.473Z,3.40
2017-12-09T00:14:58.698Z,4.20
2017-12-09T00:17:26.127Z,3.50
2017-12-09T00:19:54.341Z,4.00
2017-12-09T00:22:33.607Z,3.65
2017-12-09T00:25:01.064Z,3.50
2017-12-09T00:27:28.515Z,3.15
2017-12-09T00:29:57.310Z,2.97
2017-12-09T00:32:25.553Z,3.97
2017-12-09T00:34:52.993Z,3.15
2017-12-09T00:37:21.227Z,3.60
2017-12-09T00:39:48.688Z,4.82
2017-12-09T00:42:16.154Z,3.47
2017-12-09T00:44:45.259Z,4.45
2017-12-09T00:47:12.765Z,5.65
2017-12-09T00:49:40.206Z,5.07
2017-12-09T00:52:07.697Z,4.55
2017-12-09T00:54:35.219Z,4.57
2017-12-09T00:57:02.650Z,4.55
2017-12-09T00:59:30.091Z,5.57
2017-12-09T01:01:58.293Z,4.65
2017-12-09T01:04:25.743Z,5.07
2017-12-09T01:06:53.168Z,4.50
2017-12-09T01:09:20.628Z,4.75
2017-12-09T01:11:48.062Z,5.47
2017-12-09T01:14:15.508Z,5.40
2017-12-09T01:16:54.858Z,4.37
2017-12-09T01:19:22.303Z,5.43
2017-12-09T01:21:49.774Z,4.50
2017-12-09T01:24:17.238Z,4.90
2017-12-09T01:26:45.428Z,4.35
2017-12-09T01:29:12.882Z,4.43
2017-12-09T01:31:40.324Z,4.72
2017-12-09T01:34:07.773Z,4.90
2017-12-09T01:36:35.231Z,4.45
2017-12-09T01:39:02.684Z,4.72
2017-12-09T01:41:30.953Z,5.18
2017-12-09T01:43:58.406Z,4.93
2017-12-09T01:46:25.876Z,4.75
2017-12-09T01:48:53.312Z,4.07
2017-12-09T01:51:21.530Z,4.65
2017-12-09T01:53:48.970Z,4.80
2017-12-09T01:56:17.351Z,4.47
2017-12-09T01:58:45.223Z,4.10
2017-12-09T02:01:12.692Z,3.72
2017-12-09T02:03:40.153Z,3.75
2017-12-09T02:06:07.606Z,4.45
2017-12-09T02:08:35.053Z,4.20
2017-12-09T02:11:03.246Z,3.65
2017-12-09T02:13:31.460Z,4.22
2017-12-09T02:15:58.931Z,4.47
2017-12-09T02:18:26.406Z,3.35
2017-12-09T02:20:53.848Z,4.05
2017-12-09T02:23:22.080Z,4.10
2017-12-09T02:25:49.538Z,4.75
2017-12-09T02:28:16.996Z,3.97
2017-12-09T02:30:45.215Z,3.85
2017-12-09T02:33:12.683Z,3.80
2017-12-09T02:35:40.179Z,5.37
2017-12-09T02:38:07.588Z,3.92
2017-12-09T02:40:35.056Z,3.65
2017-12-09T02:43:02.524Z,4.32
2017-12-09T02:45:29.983Z,4.03
2017-12-09T02:47:57.449Z,3.95
2017-12-09T02:50:24.901Z,3.15
2017-12-09T02:52:52.356Z,3.70
2017-12-09T02:55:20.587Z,4.05
2017-12-09T02:57:48.048Z,3.70
2017-12-09T03:00:15.486Z,4.15
2017-12-09T03:02:42.935Z,4.05
2017-12-09T03:05:10.400Z,3.62
2017-12-09T03:07:37.851Z,3.45
2017-12-09T03:10:05.386Z,3.28
2017-12-09T03:12:32.825Z,3.15
2017-12-09T03:15:00.296Z,3.40
2017-12-09T03:17:27.744Z,3.20
2017-12-09T03:19:55.939Z,3.10
2017-12-09T03:22:23.368Z,3.97
2017-12-09T03:24:50.926Z,3.40
2017-12-09T03:27:18.363Z,2.58
2017-12-09T03:29:45.835Z,4.32
2017-12-09T03:32:13.287Z,3.62
2017-12-09T03:34:41.511Z,2.95
2017-12-09T03:37:08.968Z,2.80
2017-12-09T03:39:37.824Z,2.90
2017-12-09T03:42:05.266Z,3.17
2017-12-09T03:44:32.738Z,3.62
2017-12-09T03:47:00.199Z,2.15
2017-12-09T03:49:28.406Z,2.75
2017-12-09T03:51:55.867Z,3.90
2017-12-09T03:54:24.079Z,2.80
2017-12-09T03:56:51.530Z,3.15
2017-12-09T03:59:19.745Z,2.80
2017-12-09T04:01:47.210Z,3.00
2017-12-09T04:04:14.660Z,2.67
2017-12-09T04:06:42.091Z,3.17
2017-12-09T04:09:09.568Z,2.78
2017-12-09T04:11:37.013Z,2.60
2017-12-09T04:14:04.476Z,2.50
2017-12-09T04:16:32.679Z,2.47
2017-12-09T04:19:00.131Z,2.75
2017-12-09T04:21:28.360Z,2.10
2017-12-09T04:23:55.806Z,2.83
2017-12-09T04:26:24.016Z,2.42
2017-12-09T04:28:51.473Z,2.50
2017-12-09T04:31:19.695Z,2.62
2017-12-09T04:33:47.179Z,2.67
2017-12-09T04:36:14.633Z,2.80
2017-12-09T04:38:42.081Z,2.40
2017-12-09T04:41:09.544Z,3.33
2017-12-09T04:43:36.983Z,2.95
2017-12-09T04:46:04.456Z,2.90
2017-12-09T04:48:31.902Z,2.90
2017-12-09T04:50:59.324Z,3.35
2017-12-09T04:53:26.783Z,2.55
2017-12-09T04:55:54.207Z,3.12
2017-12-09T04:58:22.453Z,2.92
2017-12-09T05:00:49.888Z,2.83
2017-12-09T05:03:17.400Z,2.50
2017-12-09T05:05:44.850Z,3.50
2017-12-09T05:08:12.326Z,3.50
2017-12-09T05:10:39.766Z,3.12
2017-12-09T05:13:07.983Z,4.45
2017-12-09T05:15:35.462Z,3.62
2017-12-09T05:18:02.930Z,2.60
2017-12-09T05:20:30.402Z,3.40
2017-12-09T05:22:57.846Z,2.80
2017-12-09T05:25:25.286Z,2.83
2017-12-09T05:27:52.727Z,3.75
2017-12-09T05:30:20.200Z,3.15
2017-12-09T05:32:48.409Z,2.87
2017-12-09T05:35:15.888Z,2.42
2017-12-09T05:37:43.378Z,3.35
2017-12-09T05:40:10.799Z,2.50
2017-12-09T05:42:39.023Z,2.45
2017-12-09T05:45:06.468Z,3.35
2017-12-09T05:47:35.163Z,4.32
2017-12-09T05:50:03.383Z,3.05
2017-12-09T05:52:30.834Z,2.80
2017-12-09T05:54:59.072Z,3.42
2017-12-09T05:57:26.572Z,3.00
2017-12-09T05:59:54.081Z,2.92
2017-12-09T06:02:22.292Z,3.22
2017-12-09T06:04:49.757Z,3.35
2017-12-09T06:07:17.969Z,3.95
2017-12-09T06:09:45.434Z,3.60
2017-12-09T06:12:12.881Z,3.30
2017-12-09T06:14:41.103Z,4.03
2017-12-09T06:17:08.538Z,4.12
2017-12-09T06:19:35.992Z,3.40
2017-12-09T06:22:03.451Z,3.25
2017-12-09T06:24:30.952Z,3.97
2017-12-09T06:26:58.414Z,3.67
2017-12-09T06:29:25.839Z,3.80
2017-12-09T06:31:53.287Z,3.65
2017-12-09T06:34:20.733Z,3.85
2017-12-09T06:36:48.189Z,3.72
2017-12-09T06:39:15.623Z,3.78
2017-12-09T06:41:43.847Z,2.75
2017-12-09T06:44:11.275Z,3.55
2017-12-09T06:46:38.733Z,3.50
2017-12-09T06:49:06.183Z,3.05
2017-12-09T06:51:33.663Z,4.55
2017-12-09T06:54:01.168Z,3.55
2017-12-09T06:56:28.633Z,3.55
2017-12-09T06:58:56.102Z,3.33
2017-12-09T07:01:23.540Z,3.53
2017-12-09T07:03:50.999Z,3.37
2017-12-09T07:06:19.217Z,3.65
2017-12-09T07:08:46.747Z,3.60
2017-12-09T07:11:14.207Z,4.43
2017-12-09T07:13:45.592Z,3.55
2017-12-09T07:16:13.804Z,3.47
2017-12-09T07:18:42.033Z,2.80
2017-12-09T07:21:09.460Z,3.37
2017-12-09T07:23:37.702Z,3.08
2017-12-09T07:26:05.157Z,2.95
2017-12-09T07:28:32.667Z,3.12
2017-12-09T07:31:00.141Z,3.10
2017-12-09T07:33:27.600Z,3.37
2017-12-09T07:35:55.068Z,2.92
2017-12-09T07:38:22.513Z,3.25
2017-12-09T07:40:49.979Z,2.85
2017-12-09T07:43:18.193Z,2.28
2017-12-09T07:45:45.664Z,3.53
2017-12-09T07:48:13.115Z,3.12
2017-12-09T07:50:41.345Z,3.87
2017-12-09T07:53:08.780Z,3.30
2017-12-09T07:55:37.007Z,2.50
2017-12-09T07:58:04.459Z,2.80
2017-12-09T08:00:32.725Z,2.53
2017-12-09T08:03:00.156Z,3.47
2017-12-09T08:05:27.617Z,3.47
2017-12-09T08:07:55.091Z,3.15
2017-12-09T08:10:22.525Z,2.47
2017-12-09T08:12:49.974Z,3.20
2017-12-09T08:15:17.447Z,3.00
2017-12-09T08:17:44.960Z,2.53
2017-12-09T08:20:12.405Z,3.50
2017-12-09T08:22:39.945Z,2.53
2017-12-09T08:25:07.427Z,3.20
2017-12-09T08:27:34.934Z,2.37
2017-12-09T08:30:02.393Z,2.42
2017-12-09T08:32:29.894Z,3.42
2017-12-09T08:34:57.417Z,3.20
2017-12-09T08:37:24.855Z,3.17
2017-12-09T08:39:52.419Z,3.50
2017-12-09T08:42:19.877Z,2.65
2017-12-09T08:44:47.339Z,3.17
2017-12-09T08:47:14.819Z,3.35
2017-12-09T08:49:42.371Z,2.95
2017-12-09T08:52:09.812Z,3.05
2017-12-09T08:54:38.030Z,3.45
2017-12-09T08:57:05.473Z,2.45
2017-12-09T08:59:32.924Z,2.75
2017-12-09T09:02:00.398Z,3.75
2017-12-09T09:04:27.849Z,2.90
2017-12-09T09:06:55.292Z,2.67
2017-12-09T09:09:23.512Z,2.62
2017-12-09T09:11:51.831Z,2.80
2017-12-09T09:14:19.301Z,3.00
2017-12-09T09:16:46.752Z,2.62
2017-12-09T09:19:14.209Z,2.80
2017-12-09T09:21:41.731Z,3.03
2017-12-09T09:24:09.601Z,2.70
2017-12-09T09:26:37.054Z,2.42
2017-12-09T09:29:04.492Z,2.80
2017-12-09T09:44:21.945Z,2.78
2017-12-09T09:46:49.396Z,2.40
2017-12-09T09:49:16.938Z,2.58
2017-12-09T09:51:44.391Z,2.65
2017-12-09T09:54:11.848Z,2.47
2017-12-09T09:56:39.312Z,2.03
2017-12-09T09:59:06.780Z,3.30
2017-12-09T10:01:34.252Z,2.17
2017-12-09T10:04:01.720Z,2.22
2017-12-09T10:06:29.168Z,2.42
2017-12-09T10:08:57.402Z,2.37
2017-12-09T10:11:24.851Z,3.12
2017-12-09T10:13:53.549Z,3.33
2017-12-09T10:16:21.794Z,2.97
2017-12-09T10:18:49.219Z,3.20
2017-12-09T10:21:17.432Z,3.15
2017-12-09T10:23:44.880Z,2.47
2017-12-09T10:26:12.352Z,2.95
2017-12-09T10:28:40.553Z,3.05
2017-12-09T10:31:08.826Z,3.15
2017-12-09T10:33:36.304Z,2.50
2017-12-09T10:36:03.983Z,2.35
2017-12-09T10:38:32.213Z,2.90
2017-12-09T10:40:59.682Z,2.65
2017-12-09T10:43:27.155Z,2.45
2017-12-09T10:45:55.372Z,2.70
2017-12-09T10:48:22.811Z,3.12
2017-12-09T10:50:50.302Z,2.30
2017-12-09T10:53:17.701Z,2.95
2017-12-09T10:55:45.159Z,2.40
2017-12-09T10:58:12.621Z,2.55
2017-12-09T11:00:40.300Z,2.10
2017-12-09T11:03:07.766Z,2.00
2017-12-09T11:05:35.968Z,2.30
2017-12-09T11:08:03.420Z,2.83
2017-12-09T11:10:31.619Z,2.37
2017-12-09T11:12:59.844Z,2.85
2017-12-09T11:15:27.328Z,2.53
2017-12-09T11:17:54.808Z,2.33
2017-12-09T11:20:22.313Z,2.37
2017-12-09T11:22:49.770Z,2.72
2017-12-09T11:25:17.209Z,3.00
2017-12-09T11:27:44.714Z,2.83
2017-12-09T11:30:12.165Z,2.20
2017-12-09T11:32:39.620Z,2.70
2017-12-09T11:35:07.114Z,2.35
2017-12-09T11:37:34.563Z,2.62
2017-12-09T11:40:02.839Z,2.35
2017-12-09T11:42:30.276Z,2.00
2017-12-09T11:44:57.758Z,1.95
2017-12-09T11:47:25.195Z,2.10
2017-12-09T11:49:52.666Z,2.67
2017-12-09T11:52:20.162Z,2.60
2017-12-09T11:54:47.699Z,2.55
2017-12-09T11:57:15.958Z,2.30
2017-12-09T11:59:43.416Z,2.70
2017-12-09T12:02:11.031Z,2.47
2017-12-09T12:04:39.239Z,2.17
2017-12-09T12:12:46.380Z,2.40
2017-12-09T12:15:14.624Z,2.92
2017-12-09T12:17:42.109Z,2.80
2017-12-09T12:20:09.591Z,1.70
2017-12-09T12:22:37.040Z,1.77
2017-12-09T12:25:04.540Z,2.50
2017-12-09T12:27:31.985Z,1.73
2017-12-09T12:29:59.425Z,2.90
2017-12-09T12:32:27.664Z,2.03
2017-12-09T12:34:55.237Z,3.35
2017-12-09T12:37:22.673Z,1.85
2017-12-09T12:39:50.906Z,2.55
2017-12-09T12:42:18.406Z,1.85
2017-12-09T12:44:45.840Z,2.35
2017-12-09T12:47:13.306Z,2.90
2017-12-09T12:49:40.871Z,1.70
2017-12-09T12:52:09.076Z,2.00
2017-12-09T12:54:36.521Z,2.20
2017-12-09T12:57:04.725Z,2.40
2017-12-09T12:59:32.179Z,2.22
2017-12-09T13:01:59.659Z,2.78
2017-12-09T13:04:27.110Z,2.40
2017-12-09T13:06:54.583Z,2.15
2017-12-09T13:09:22.040Z,2.87
2017-12-09T13:11:49.532Z,3.20
2017-12-09T13:14:16.976Z,3.30
2017-12-09T13:16:44.448Z,3.22
2017-12-09T13:19:11.887Z,3.28
2017-12-09T13:21:40.115Z,3.28
2017-12-09T13:24:07.561Z,2.85
2017-12-09T13:26:35.812Z,3.28
2017-12-09T13:29:03.299Z,4.68
2017-12-09T13:31:30.766Z,5.28
2017-12-09T13:33:58.333Z,3.67
2017-12-09T13:36:26.655Z,3.80
2017-12-09T13:38:54.106Z,4.03
2017-12-09T13:41:21.595Z,4.47
2017-12-09T13:43:49.057Z,4.72
2017-12-09T13:46:16.500Z,4.32
2017-12-09T13:48:43.976Z,3.30
2017-12-09T13:51:11.433Z,4.32
2017-12-09T13:53:39.671Z,3.37
2017-12-09T13:56:07.153Z,3.30
2017-12-09T13:58:34.607Z,3.92
2017-12-09T14:01:02.048Z,3.50
2017-12-09T14:03:30.364Z,3.83
2017-12-09T14:05:57.850Z,3.85
2017-12-09T14:08:25.284Z,3.95
2017-12-09T14:10:53.498Z,3.60
2017-12-09T14:13:20.946Z,3.35
2017-12-09T14:15:49.168Z,2.58
2017-12-09T14:18:16.603Z,2.50
2017-12-09T14:20:44.115Z,4.07
2017-12-09T14:23:11.558Z,3.20
2017-12-09T14:25:38.997Z,3.35
2017-12-09T14:28:06.483Z,4.12
2017-12-09T14:30:33.960Z,3.75
2017-12-09T14:33:01.441Z,3.65
2017-12-09T14:48:18.897Z,3.50
2017-12-09T14:50:46.550Z,3.00
2017-12-09T14:53:15.226Z,3.00
2017-12-09T14:55:42.678Z,3.05
2017-12-09T14:58:10.143Z,2.95
2017-12-09T15:00:37.600Z,2.70
2017-12-09T15:03:05.186Z,2.60
2017-12-09T15:05:32.628Z,2.97
2017-12-09T15:08:00.894Z,2.90
2017-12-09T15:10:28.354Z,3.20
2017-12-09T15:12:55.837Z,3.08
2017-12-09T15:15:23.419Z,2.92
2017-12-09T15:17:50.873Z,2.75
2017-12-09T15:20:18.334Z,2.53
2017-12-09T15:22:45.792Z,2.87
2017-12-09T15:25:13.246Z,3.03
2017-12-09T15:27:41.494Z,2.65
2017-12-09T15:30:09.010Z,3.05
2017-12-09T15:32:37.297Z,2.53
2017-12-09T15:35:05.524Z,2.75
2017-12-09T15:37:32.970Z,3.30
2017-12-09T15:40:01.227Z,2.70
2017-12-09T15:42:28.636Z,2.95
2017-12-09T15:44:56.067Z,2.60
2017-12-09T15:47:23.526Z,3.70
2017-12-09T15:49:50.973Z,3.12
2017-12-09T15:52:18.426Z,3.92
2017-12-09T15:54:46.635Z,3.45
2017-12-09T15:57:14.140Z,3.17
2017-12-09T15:59:41.602Z,2.90
2017-12-09T16:02:09.089Z,3.33
2017-12-09T16:04:36.515Z,3.20
2017-12-09T16:07:04.728Z,4.07
2017-12-09T16:09:32.184Z,2.85
2017-12-09T16:11:59.624Z,2.55
2017-12-09T16:14:27.084Z,2.95
2017-12-09T16:16:54.529Z,2.60
2017-12-09T16:19:21.979Z,3.25
2017-12-09T16:21:50.285Z,2.75
2017-12-09T16:24:17.726Z,3.12
2017-12-09T16:26:45.211Z,2.78
2017-12-09T16:29:12.676Z,2.92
2017-12-09T16:31:40.113Z,2.45
2017-12-09T16:34:07.564Z,1.85
2017-12-09T16:36:36.188Z,2.95
2017-12-09T16:39:04.375Z,2.80
2017-12-09T16:51:12.866Z,3.05
2017-12-09T16:53:40.340Z,4.30
2017-12-09T17:05:52.684Z,2.80
2017-12-09T17:21:10.470Z,3.12
2017-12-09T17:23:37.912Z,3.40
2017-12-09T17:35:50.472Z,2.75
2017-12-09T17:38:18.668Z,2.35
2017-12-09T17:50:26.156Z,1.52
2017-12-09T17:52:53.615Z,2.25
2017-12-09T18:05:05.037Z,2.58
2017-12-09T18:07:32.511Z,1.75
2017-12-09T18:10:00.980Z,3.33
2017-12-09T18:22:08.448Z,3.30
2017-12-09T18:24:36.136Z,1.98
2017-12-09T18:27:04.376Z,2.25
2017-12-09T18:29:32.960Z,2.72
2017-12-09T18:44:51.239Z,1.90
2017-12-09T18:47:20.053Z,2.30
2017-12-09T18:49:48.471Z,2.30
2017-12-09T18:52:17.259Z,2.53
2017-12-09T19:04:25.201Z,1.40
2017-12-09T19:06:57.299Z,2.50
2017-12-09T19:09:26.661Z,2.40
2017-12-09T19:11:55.095Z,2.70
2017-12-09T19:14:23.543Z,2.22
2017-12-09T19:16:51.026Z,2.90
2017-12-09T19:19:19.053Z,2.42
2017-12-09T19:21:46.512Z,3.20
2017-12-09T19:24:13.972Z,2.75
2017-12-09T19:26:41.575Z,2.60
2017-12-09T19:29:13.596Z,3.25
2017-12-09T19:31:41.044Z,2.12
2017-12-09T19:43:49.310Z,2.08
2017-12-09T19:46:17.074Z,2.25
2017-12-09T19:58:24.523Z,2.70
2017-12-09T20:00:52.342Z,2.90
2017-12-09T20:03:20.559Z,3.28
2017-12-09T20:05:48.070Z,3.35
2017-12-09T20:08:16.440Z,3.53
2017-12-09T20:10:43.878Z,3.70
2017-12-09T20:13:12.152Z,3.08
2017-12-09T20:15:39.597Z,2.90
2017-12-09T20:18:07.096Z,3.58
2017-12-09T20:33:24.764Z,2.75
2017-12-09T20:35:52.228Z,2.85
2017-12-09T20:38:19.705Z,4.00
2017-12-09T20:40:47.767Z,3.65
2017-12-09T20:43:16.687Z,2.87
2017-12-09T20:45:44.194Z,3.10
2017-12-09T20:48:11.780Z,2.78
2017-12-09T20:50:39.251Z,3.22
2017-12-09T20:53:06.716Z,3.20
2017-12-09T21:05:14.228Z,4.05
2017-12-09T21:07:42.483Z,2.95
2017-12-09T21:10:10.032Z,3.12
2017-12-09T21:12:37.491Z,3.00
2017-12-09T21:15:05.540Z,3.20
2017-12-09T21:17:33.162Z,3.25
2017-12-09T21:20:00.851Z,3.92
2017-12-09T21:32:08.772Z,3.40
2017-12-09T21:47:26.237Z,3.78
2017-12-09T21:49:58.267Z,3.90
2017-12-09T21:52:25.690Z,3.55
2017-12-09T21:54:53.156Z,4.07
2017-12-09T21:57:20.955Z,3.20
2017-12-09T21:59:52.239Z,4.00
2017-12-09T22:02:21.181Z,3.50
2017-12-09T22:04:48.643Z,3.53
2017-12-09T22:07:16.407Z,3.62
2017-12-09T22:09:44.863Z,2.62
2017-12-09T22:12:12.912Z,3.15
2017-12-09T22:14:40.495Z,3.20
2017-12-09T22:26:47.980Z,3.25
2017-12-09T22:29:15.415Z,3.03
2017-12-09T22:31:43.356Z,3.00
2017-12-09T22:34:10.823Z,3.50
2017-12-09T22:36:39.200Z,3.12
2017-12-09T22:39:06.649Z,3.50
2017-12-09T22:54:29.091Z,2.33
2017-12-09T22:57:00.236Z,4.00
2017-12-09T23:09:07.746Z,2.70
2017-12-09T23:11:35.976Z,2.60
2017-12-09T23:14:03.408Z,3.37
2017-12-09T23:16:31.106Z,2.70
2017-12-09T23:18:58.796Z,2.97
2017-12-09T23:21:26.267Z,2.85
2017-12-09T23:23:53.711Z,2.12
2017-12-09T23:26:21.946Z,2.97
2017-12-09T23:28:49.442Z,2.40
2017-12-09T23:31:17.264Z,2.47
2017-12-09T23:33:44.819Z,2.42
2017-12-09T23:49:02.597Z,2.22
2017-12-09T23:51:30.040Z,2.20
2017-12-09T23:53:57.556Z,2.80
2017-12-09T23:56:25.008Z,2.50
2017-12-09T23:58:52.459Z,2.17
